createdAt,value
2023-04-13T00:00:21.782Z,86.77
2023-04-13T00:02:54.423Z,86.51
2023-04-13T00:05:23.981Z,85.76
2023-04-13T00:07:52.323Z,87.08
2023-04-13T00:10:20.750Z,87.95
2023-04-13T00:12:49.996Z,89.42
2023-04-13T00:15:19.327Z,91.03
2023-04-13T00:17:48.267Z,92.26
2023-04-13T00:20:16.327Z,94.59
2023-04-13T00:22:46.008Z,98.16
2023-04-13T00:25:14.812Z,98.25
2023-04-13T00:27:43.536Z,97.13
2023-04-13T00:30:12.618Z,98.81
2023-04-13T00:32:40.814Z,100.00
2023-04-13T00:35:09.643Z,100.00
2023-04-13T00:37:38.726Z,100.00
2023-04-13T00:40:10.905Z,100.00
2023-04-13T00:42:38.965Z,100.00
2023-04-13T00:45:08.246Z,100.00
2023-04-13T00:47:36.259Z,100.00
2023-04-13T00:50:04.941Z,100.00
2023-04-13T00:52:34.739Z,100.00
2023-04-13T00:55:04.009Z,100.00
2023-04-13T00:57:33.735Z,100.00
2023-04-13T01:00:01.814Z,100.00
2023-04-13T01:02:29.849Z,100.00
2023-04-13T01:04:58.123Z,100.00
2023-04-13T01:07:28.262Z,100.00
2023-04-13T01:10:00.074Z,100.00
2023-04-13T01:12:30.926Z,100.00
2023-04-13T01:15:02.025Z,100.00
2023-04-13T01:20:17.890Z,100.00
2023-04-13T01:22:47.603Z,100.00
2023-04-13T01:25:22.824Z,100.00
2023-04-13T01:27:53.974Z,100.00
2023-04-13T01:30:23.529Z,100.00
2023-04-13T01:32:52.601Z,100.00
2023-04-13T01:35:21.196Z,100.00
2023-04-13T01:37:50.240Z,100.00
2023-04-13T01:40:18.778Z,100.00
2023-04-13T01:42:46.778Z,100.00
2023-04-13T01:45:18.487Z,100.00
2023-04-13T01:47:51.058Z,100.00
2023-04-13T01:50:25.833Z,100.00
2023-04-13T01:52:54.464Z,100.00
2023-04-13T01:55:23.205Z,100.00
2023-04-13T01:57:51.953Z,100.00
2023-04-13T02:00:21.344Z,100.00
2023-04-13T02:02:49.646Z,100.00
2023-04-13T02:05:17.765Z,100.00
2023-04-13T02:07:45.916Z,100.00
2023-04-13T02:10:14.046Z,100.00
2023-04-13T02:12:43.132Z,100.00
2023-04-13T02:15:12.127Z,100.00
2023-04-13T02:17:42.000Z,100.00
2023-04-13T02:20:12.372Z,100.00
2023-04-13T02:22:41.618Z,100.00
2023-04-13T02:25:11.423Z,100.00
2023-04-13T02:27:39.776Z,100.00
2023-04-13T02:30:09.838Z,100.00
2023-04-13T02:32:39.633Z,100.00
2023-04-13T02:35:11.092Z,100.00
2023-04-13T02:37:41.021Z,100.00
2023-04-13T02:40:10.579Z,100.00
2023-04-13T02:42:38.639Z,100.00
2023-04-13T02:45:08.502Z,100.00
2023-04-13T02:47:36.519Z,100.00
2023-04-13T02:50:04.550Z,100.00
2023-04-13T02:52:33.910Z,100.00
2023-04-13T02:55:02.028Z,100.00
2023-04-13T02:57:30.284Z,100.00
2023-04-13T02:59:58.605Z,100.00
2023-04-13T03:02:30.152Z,100.00
2023-04-13T03:04:59.516Z,100.00
2023-04-13T03:07:27.551Z,100.00
2023-04-13T03:09:56.879Z,100.00
2023-04-13T03:12:26.571Z,100.00
2023-04-13T03:14:54.544Z,100.00
2023-04-13T03:17:22.488Z,100.00
2023-04-13T03:19:51.910Z,100.00
2023-04-13T03:22:19.868Z,100.00
2023-04-13T03:24:47.849Z,100.00
2023-04-13T03:27:17.909Z,100.00
2023-04-13T03:29:45.878Z,100.00
2023-04-13T03:32:13.831Z,100.00
2023-04-13T03:34:44.430Z,100.00
2023-04-13T03:37:12.599Z,100.00
2023-04-13T03:39:40.909Z,100.00
2023-04-13T03:42:08.899Z,100.00
2023-04-13T03:44:38.189Z,100.00
2023-04-13T03:47:06.191Z,100.00
2023-04-13T03:49:34.651Z,100.00
2023-04-13T03:52:02.606Z,100.00
2023-04-13T03:54:30.681Z,100.00
2023-04-13T03:57:00.689Z,100.00
2023-04-13T03:59:28.723Z,100.00
2023-04-13T04:01:58.070Z,100.00
2023-04-13T04:04:26.296Z,100.00
2023-04-13T04:06:54.376Z,100.00
2023-04-13T04:09:22.314Z,100.00
2023-04-13T04:11:50.229Z,100.00
2023-04-13T04:14:18.172Z,100.00
2023-04-13T04:16:46.249Z,100.00
2023-04-13T04:19:15.665Z,100.00
2023-04-13T04:21:44.889Z,100.00
2023-04-13T04:24:20.595Z,100.00
2023-04-13T04:26:50.278Z,100.00
2023-04-13T04:29:22.234Z,100.00
2023-04-13T04:31:53.464Z,100.00
2023-04-13T04:34:23.197Z,100.00
2023-04-13T04:36:52.111Z,100.00
2023-04-13T04:39:22.475Z,90.95
2023-04-13T04:41:54.694Z,72.99
2023-04-13T04:44:25.394Z,62.49
2023-04-13T04:46:54.109Z,55.20
2023-04-13T04:49:23.451Z,49.10
2023-04-13T04:51:52.056Z,44.46
2023-04-13T04:54:20.194Z,41.24
2023-04-13T04:56:48.174Z,40.36
2023-04-13T04:59:16.179Z,41.09
2023-04-13T05:01:44.220Z,42.84
2023-04-13T05:04:12.192Z,43.03
2023-04-13T05:06:42.168Z,41.97
2023-04-13T05:09:10.231Z,43.31
2023-04-13T05:11:38.143Z,44.99
2023-04-13T05:14:06.121Z,45.42
2023-04-13T05:16:34.682Z,45.75
2023-04-13T05:19:05.472Z,43.34
2023-04-13T05:21:34.623Z,41.26
2023-04-13T05:24:04.453Z,38.80
2023-04-13T05:26:32.432Z,35.04
2023-04-13T05:29:00.678Z,34.42
2023-04-13T05:31:28.862Z,33.65
2023-04-13T05:33:56.956Z,33.58
2023-04-13T05:36:24.889Z,33.92
2023-04-13T05:38:53.268Z,33.13
2023-04-13T05:41:22.650Z,33.63
2023-04-13T05:43:50.549Z,34.91
2023-04-13T05:46:18.570Z,39.13
2023-04-13T05:48:46.867Z,41.85
2023-04-13T05:51:15.658Z,44.38
2023-04-13T05:53:43.612Z,47.09
2023-04-13T05:56:11.677Z,47.85
2023-04-13T05:58:41.296Z,48.49
2023-04-13T06:01:12.883Z,48.33
2023-04-13T06:03:41.022Z,50.64
2023-04-13T06:06:10.412Z,53.31
2023-04-13T06:08:38.685Z,52.11
2023-04-13T06:11:08.030Z,54.72
2023-04-13T06:13:36.366Z,53.08
2023-04-13T06:16:06.213Z,53.06
2023-04-13T06:18:34.144Z,54.30
2023-04-13T06:21:02.446Z,52.29
2023-04-13T06:23:30.452Z,51.82
2023-04-13T06:25:58.396Z,53.88
2023-04-13T06:28:29.264Z,49.58
2023-04-13T06:30:57.338Z,50.75
2023-04-13T06:33:27.913Z,46.96
2023-04-13T06:35:56.275Z,46.42
2023-04-13T06:38:24.264Z,45.56
2023-04-13T06:40:52.228Z,47.04
2023-04-13T06:43:29.238Z,47.53
2023-04-13T06:46:00.742Z,47.46
2023-04-13T06:48:30.127Z,47.79
2023-04-13T06:50:59.155Z,44.85
2023-04-13T06:53:27.309Z,43.00
2023-04-13T06:55:55.241Z,42.80
2023-04-13T06:58:23.446Z,43.28
2023-04-13T07:00:51.482Z,41.40
2023-04-13T07:03:19.674Z,40.95
2023-04-13T07:05:49.100Z,37.43
2023-04-13T07:08:19.215Z,37.04
2023-04-13T07:10:47.254Z,35.73
2023-04-13T07:13:15.190Z,34.75
2023-04-13T07:15:43.863Z,34.76
2023-04-13T07:18:11.815Z,34.29
2023-04-13T07:20:39.789Z,36.12
2023-04-13T07:23:10.445Z,36.72
2023-04-13T07:25:38.426Z,36.09
2023-04-13T07:28:06.481Z,35.26
2023-04-13T07:30:34.405Z,36.29
2023-04-13T07:33:02.518Z,35.96
2023-04-13T07:35:30.567Z,37.72
2023-04-13T07:37:58.540Z,38.08
2023-04-13T07:40:27.916Z,36.95
2023-04-13T07:42:55.923Z,36.49
2023-04-13T07:45:23.928Z,36.85
2023-04-13T07:47:53.605Z,37.78
2023-04-13T07:50:21.789Z,37.77
2023-04-13T07:52:49.772Z,39.27
2023-04-13T07:55:17.747Z,36.79
2023-04-13T07:57:47.075Z,36.13
2023-04-13T08:00:17.045Z,35.90
2023-04-13T08:02:45.257Z,35.34
2023-04-13T08:05:13.602Z,36.07
2023-04-13T08:07:41.938Z,35.88
2023-04-13T08:10:11.018Z,38.96
2023-04-13T08:12:38.980Z,37.71
2023-04-13T08:15:09.999Z,38.83
2023-04-13T08:17:38.399Z,40.83
2023-04-13T08:20:08.456Z,39.42
2023-04-13T08:22:36.798Z,38.99
2023-04-13T08:25:06.711Z,42.16
2023-04-13T08:27:34.716Z,41.13
2023-04-13T08:30:03.709Z,42.79
2023-04-13T08:32:33.063Z,41.77
2023-04-13T08:35:06.774Z,41.96
2023-04-13T08:37:34.960Z,41.62
2023-04-13T08:40:05.953Z,42.28
2023-04-13T08:42:34.007Z,43.10
2023-04-13T08:45:01.931Z,41.03
2023-04-13T08:47:30.188Z,41.05
2023-04-13T08:49:59.803Z,43.08
2023-04-13T08:52:27.854Z,41.93
2023-04-13T08:54:57.477Z,41.28
2023-04-13T08:57:25.416Z,41.72
2023-04-13T08:59:53.499Z,41.21
2023-04-13T09:02:24.070Z,40.69
2023-04-13T09:04:52.724Z,39.22
2023-04-13T09:07:26.726Z,40.49
2023-04-13T09:09:56.178Z,40.92
2023-04-13T09:12:24.164Z,41.79
2023-04-13T09:14:52.143Z,40.15
2023-04-13T09:17:26.107Z,39.84
2023-04-13T09:19:54.371Z,40.39
2023-04-13T09:22:24.891Z,39.90
2023-04-13T09:24:52.876Z,41.68
2023-04-13T09:27:21.186Z,39.20
2023-04-13T09:29:52.792Z,40.87
2023-04-13T09:32:22.628Z,39.45
2023-04-13T09:35:01.513Z,38.55
2023-04-13T09:37:32.520Z,39.44
2023-04-13T09:40:10.934Z,38.45
2023-04-13T09:42:39.652Z,37.42
2023-04-13T09:45:08.516Z,40.08
2023-04-13T09:47:37.960Z,38.09
2023-04-13T09:50:07.120Z,38.84
2023-04-13T09:52:36.508Z,37.12
2023-04-13T09:55:04.475Z,41.62
2023-04-13T09:57:33.199Z,37.83
2023-04-13T10:00:02.255Z,36.94
2023-04-13T10:02:30.620Z,38.46
2023-04-13T10:04:58.956Z,38.31
2023-04-13T10:07:30.137Z,39.71
2023-04-13T10:09:59.547Z,39.41
2023-04-13T10:12:27.541Z,38.52
2023-04-13T10:14:57.170Z,37.81
2023-04-13T10:17:33.232Z,37.80
2023-04-13T10:20:07.891Z,36.56
2023-04-13T10:22:35.855Z,35.85
2023-04-13T10:25:06.946Z,35.49
2023-04-13T10:27:36.496Z,37.10
2023-04-13T10:30:16.206Z,37.60
2023-04-13T10:32:44.317Z,35.58
2023-04-13T10:35:13.449Z,35.77
2023-04-13T10:37:43.013Z,35.66
2023-04-13T10:40:14.496Z,36.13
2023-04-13T10:45:21.437Z,33.28
2023-04-13T10:47:49.427Z,32.47
2023-04-13T10:50:18.521Z,31.77
2023-04-13T10:53:00.635Z,31.70
2023-04-13T10:55:30.567Z,29.79
2023-04-13T10:57:58.716Z,28.38
2023-04-13T11:00:42.268Z,27.93
2023-04-13T11:03:15.333Z,28.38
2023-04-13T11:05:43.867Z,28.13
2023-04-13T11:08:18.857Z,28.55
2023-04-13T11:10:53.267Z,28.13
2023-04-13T11:13:21.579Z,29.00
2023-04-13T11:15:50.641Z,29.43
2023-04-13T11:18:25.574Z,29.25
2023-04-13T11:20:53.638Z,28.43
2023-04-13T11:23:23.982Z,27.67
2023-04-13T11:25:54.950Z,26.76
2023-04-13T11:28:23.538Z,26.06
2023-04-13T11:30:56.168Z,24.53
2023-04-13T11:33:27.702Z,26.01
2023-04-13T11:35:55.852Z,24.64
2023-04-13T11:38:23.873Z,23.13
2023-04-13T11:41:04.720Z,22.34
2023-04-13T11:43:42.012Z,22.89
2023-04-13T11:46:12.924Z,21.24
2023-04-13T11:48:40.982Z,20.67
2023-04-13T11:51:09.653Z,22.19
2023-04-13T11:53:38.806Z,21.72
2023-04-13T11:56:08.775Z,21.62
2023-04-13T11:58:36.837Z,21.92
2023-04-13T12:01:13.979Z,21.26
2023-04-13T12:03:57.498Z,22.49
2023-04-13T12:06:32.730Z,20.22
2023-04-13T12:09:08.992Z,21.42
2023-04-13T12:11:42.008Z,21.66
2023-04-13T13:29:47.299Z,32.79
2023-04-13T13:32:16.804Z,32.94
2023-04-13T13:34:46.042Z,31.12
2023-04-13T13:37:14.139Z,33.05
2023-04-13T13:39:42.581Z,33.42
2023-04-13T13:42:10.556Z,33.21
2023-04-13T13:44:38.512Z,33.76
2023-04-13T13:47:07.879Z,32.80
2023-04-13T13:49:35.818Z,32.69
2023-04-13T13:52:03.750Z,31.52
2023-04-13T13:54:31.664Z,31.96
2023-04-13T13:56:59.599Z,32.69
2023-04-13T13:59:27.812Z,33.72
2023-04-13T14:01:56.173Z,32.73
2023-04-13T14:04:25.727Z,33.46
2023-04-13T14:06:53.723Z,33.61
2023-04-13T14:09:21.669Z,33.61
2023-04-13T14:11:50.719Z,34.32
2023-04-13T14:14:22.247Z,35.45
2023-04-13T14:16:50.744Z,32.80
2023-04-13T14:19:20.844Z,32.34
2023-04-13T14:21:50.477Z,31.58
2023-04-13T14:24:18.455Z,31.49
2023-04-13T14:26:46.485Z,31.08
2023-04-13T14:29:14.535Z,31.74
2023-04-13T14:31:42.577Z,32.54
2023-04-13T14:34:10.660Z,31.69
2023-04-13T14:36:39.164Z,32.09
2023-04-13T14:39:08.730Z,32.58
2023-04-13T14:41:36.710Z,33.00
2023-04-13T14:44:04.709Z,33.12
2023-04-13T14:46:32.696Z,31.89
2023-04-13T14:49:00.951Z,32.64
2023-04-13T14:51:29.177Z,32.71
2023-04-13T14:53:57.572Z,33.86
2023-04-13T14:56:27.192Z,33.80
2023-04-13T14:58:55.205Z,31.27
2023-04-13T15:01:24.833Z,32.49
2023-04-13T15:03:53.776Z,32.37
2023-04-13T15:06:22.495Z,32.86
2023-04-13T15:08:50.564Z,32.41
2023-04-13T15:11:18.587Z,33.79
2023-04-13T15:13:47.885Z,32.77
2023-04-13T15:16:16.355Z,32.46
2023-04-13T15:18:44.433Z,31.49
2023-04-13T15:21:12.412Z,31.20
2023-04-13T15:23:40.358Z,31.44
2023-04-13T15:26:08.349Z,32.49
2023-04-13T15:28:38.664Z,31.60
2023-04-13T15:31:08.043Z,31.71
2023-04-13T15:33:36.372Z,32.21
2023-04-13T15:36:04.328Z,32.47
2023-04-13T15:38:32.337Z,32.57
2023-04-13T15:41:00.550Z,32.92
2023-04-13T15:43:28.842Z,33.59
2023-04-13T15:45:56.816Z,32.34
2023-04-13T15:48:26.458Z,32.39
2023-04-13T15:50:59.107Z,33.98
2023-04-13T15:53:27.271Z,34.06
2023-04-13T15:55:55.345Z,33.50
2023-04-13T15:58:23.420Z,33.79
2023-04-13T16:00:58.790Z,33.99
2023-04-13T16:03:28.318Z,33.92
2023-04-13T16:05:56.342Z,34.48
2023-04-13T16:08:24.362Z,34.17
2023-04-13T16:10:53.274Z,34.45
2023-04-13T16:13:21.257Z,35.03
2023-04-13T16:15:53.290Z,34.94
2023-04-13T16:18:22.236Z,35.68
2023-04-13T16:20:53.770Z,36.50
2023-04-13T16:23:21.881Z,36.90
2023-04-13T16:25:49.815Z,37.69
2023-04-13T16:28:18.018Z,38.37
2023-04-13T16:30:46.136Z,38.61
2023-04-13T16:33:14.178Z,38.64
2023-04-13T16:35:42.185Z,39.27
2023-04-13T16:38:11.560Z,39.77
2023-04-13T16:40:39.500Z,40.38
2023-04-13T16:43:07.487Z,41.89
2023-04-13T16:45:35.421Z,41.90
2023-04-13T16:48:03.496Z,42.19
2023-04-13T16:50:32.326Z,43.45
2023-04-13T16:53:00.665Z,43.16
2023-04-13T16:55:31.268Z,44.09
2023-04-13T16:57:59.203Z,45.18
2023-04-13T17:00:27.173Z,45.95
2023-04-13T17:02:55.267Z,47.07
2023-04-13T17:05:28.202Z,49.25
2023-04-13T17:07:56.214Z,50.02
2023-04-13T17:10:24.341Z,50.41
2023-04-13T17:12:53.682Z,51.40
2023-04-13T17:15:21.784Z,53.33
2023-04-13T17:17:49.828Z,54.20
2023-04-13T17:20:17.842Z,55.86
2023-04-13T17:22:46.106Z,58.07
2023-04-13T17:25:14.045Z,60.27
2023-04-13T17:27:42.169Z,62.30
2023-04-13T17:30:13.358Z,64.35
2023-04-13T17:32:41.520Z,69.01
2023-04-13T17:35:10.269Z,70.26
2023-04-13T17:37:38.214Z,69.28
2023-04-13T17:40:07.218Z,71.09
2023-04-13T17:42:35.174Z,69.53
2023-04-13T17:45:03.118Z,68.09
2023-04-13T17:47:32.455Z,69.73
2023-04-13T17:50:00.838Z,71.90
2023-04-13T17:52:28.821Z,70.59
2023-04-13T17:54:56.736Z,71.14
2023-04-13T17:57:24.707Z,72.64
2023-04-13T17:59:52.648Z,71.73
2023-04-13T18:02:21.153Z,75.66
2023-04-13T18:04:50.575Z,78.36
2023-04-13T18:07:18.599Z,79.66
2023-04-13T18:09:46.515Z,80.96
2023-04-13T18:12:14.502Z,76.40
2023-04-13T18:14:42.464Z,77.60
2023-04-13T18:17:10.377Z,77.98
2023-04-13T18:19:38.429Z,80.24
2023-04-13T18:22:07.781Z,80.55
2023-04-13T18:24:35.936Z,85.96
2023-04-13T18:27:03.933Z,81.96
2023-04-13T18:29:31.915Z,82.67
2023-04-13T18:31:59.887Z,82.15
2023-04-13T18:34:30.565Z,83.90
2023-04-13T18:36:58.474Z,84.43
2023-04-13T18:39:27.821Z,84.08
2023-04-13T18:41:55.799Z,82.18
2023-04-13T18:44:23.742Z,82.31
2023-04-13T18:46:52.041Z,83.62
2023-04-13T18:49:20.059Z,83.09
2023-04-13T18:51:48.051Z,84.34
2023-04-13T18:54:16.545Z,86.11
2023-04-13T18:56:45.854Z,86.78
2023-04-13T18:59:13.782Z,87.68
2023-04-13T19:01:41.830Z,89.46
2023-04-13T19:04:09.926Z,86.99
2023-04-13T19:06:38.830Z,89.49
2023-04-13T19:09:07.080Z,92.77
2023-04-13T19:11:47.993Z,90.00
2023-04-13T19:14:16.352Z,90.35
2023-04-13T19:16:45.794Z,91.29
2023-04-13T19:19:15.723Z,90.55
2023-04-13T19:21:43.742Z,91.92
2023-04-13T19:24:13.449Z,90.88
2023-04-13T19:26:41.541Z,90.25
2023-04-13T19:29:13.146Z,90.29
2023-04-13T19:31:42.821Z,90.07
2023-04-13T19:34:11.468Z,91.12
2023-04-13T19:36:39.639Z,90.29
2023-04-13T19:39:08.165Z,91.05
2023-04-13T19:41:37.576Z,92.09
2023-04-13T19:44:05.666Z,93.36
2023-04-13T19:46:34.960Z,94.17
2023-04-13T19:49:02.972Z,93.58
2023-04-13T19:51:31.131Z,94.26
2023-04-13T19:54:01.382Z,93.29
2023-04-13T19:56:30.741Z,93.24
2023-04-13T19:58:58.823Z,93.88
2023-04-13T20:01:26.795Z,93.80
2023-04-13T20:03:56.192Z,94.04
2023-04-13T20:06:24.197Z,93.66
2023-04-13T20:08:52.125Z,94.22
2023-04-13T20:11:20.784Z,95.19
2023-04-13T20:13:48.732Z,95.87
2023-04-13T20:16:16.681Z,96.57
2023-04-13T20:18:46.029Z,98.42
2023-04-13T20:21:15.682Z,97.54
2023-04-13T20:23:43.747Z,96.75
2023-04-13T20:26:11.723Z,96.10
2023-04-13T20:28:39.650Z,98.69
2023-04-13T20:31:08.459Z,97.55
2023-04-13T20:33:36.451Z,97.99
2023-04-13T20:36:04.589Z,96.85
2023-04-13T20:38:35.769Z,95.70
2023-04-13T20:41:04.500Z,94.93
2023-04-13T20:43:32.427Z,93.94
2023-04-13T20:46:00.353Z,92.46
2023-04-13T20:51:01.771Z,96.99
2023-04-13T20:53:29.842Z,94.69
2023-04-13T20:55:59.190Z,95.61
2023-04-13T20:58:27.199Z,94.59
2023-04-13T21:00:55.542Z,95.71
2023-04-13T21:03:23.981Z,97.37
2023-04-13T21:05:52.813Z,97.64
2023-04-13T21:08:21.200Z,99.08
2023-04-13T21:10:49.906Z,95.99
2023-04-13T21:13:19.393Z,96.42
2023-04-13T21:15:48.095Z,96.21
2023-04-13T21:18:16.077Z,97.00
2023-04-13T21:20:44.228Z,98.05
2023-04-13T21:23:12.159Z,99.65
2023-04-13T21:25:40.164Z,100.00
2023-04-13T21:28:08.124Z,100.00
2023-04-13T21:30:37.490Z,100.00
2023-04-13T21:33:05.503Z,100.00
2023-04-13T21:35:33.483Z,100.00
2023-04-13T21:38:04.987Z,100.00
2023-04-13T21:40:32.968Z,100.00
2023-04-13T21:43:00.892Z,100.00
2023-04-13T21:45:28.873Z,100.00
2023-04-13T21:47:58.327Z,100.00
2023-04-13T21:50:26.366Z,100.00
2023-04-13T21:52:54.342Z,100.00
2023-04-13T21:55:22.341Z,100.00
2023-04-13T21:57:50.315Z,100.00
2023-04-13T22:00:18.740Z,100.00
2023-04-13T22:02:46.782Z,100.00
2023-04-13T22:05:16.908Z,100.00
2023-04-13T22:07:45.163Z,100.00
2023-04-13T22:10:13.081Z,100.00
2023-04-13T22:12:41.092Z,100.00
2023-04-13T22:15:09.604Z,100.00
2023-04-13T22:17:37.645Z,100.00
2023-04-13T22:20:06.485Z,100.00
2023-04-13T22:22:35.868Z,100.00
2023-04-13T22:25:03.846Z,100.00
2023-04-13T22:27:31.782Z,100.00
2023-04-13T22:29:59.771Z,100.00
2023-04-13T22:32:28.665Z,100.00
2023-04-13T22:34:56.651Z,100.00
2023-04-13T22:37:24.686Z,100.00
2023-04-13T22:39:54.021Z,100.00
2023-04-13T22:42:22.001Z,100.00
2023-04-13T22:44:49.900Z,100.00
2023-04-13T22:47:17.863Z,100.00
2023-04-13T22:49:45.848Z,100.00
2023-04-13T22:52:13.888Z,100.00
2023-04-13T22:54:41.857Z,100.00
2023-04-13T22:57:11.195Z,100.00
2023-04-13T22:59:39.182Z,100.00
2023-04-13T23:02:07.288Z,100.00
2023-04-13T23:04:35.612Z,100.00
2023-04-13T23:07:03.707Z,100.00
2023-04-13T23:09:32.214Z,100.00
2023-04-13T23:12:00.200Z,98.99
2023-04-13T23:14:29.528Z,96.26
2023-04-13T23:16:57.461Z,94.77
2023-04-13T23:19:25.418Z,93.05
2023-04-13T23:21:53.352Z,92.18
2023-04-13T23:24:21.284Z,90.91
2023-04-13T23:26:49.250Z,90.03
2023-04-13T23:29:17.277Z,95.46
2023-04-13T23:31:46.646Z,95.87
2023-04-13T23:34:14.602Z,98.10
2023-04-13T23:36:42.505Z,98.88
2023-04-13T23:39:10.478Z,100.00
2023-04-13T23:41:38.410Z,100.00
2023-04-13T23:44:06.371Z,100.00
2023-04-13T23:46:34.547Z,100.00
2023-04-13T23:49:03.834Z,100.00
2023-04-13T23:51:31.834Z,100.00
2023-04-13T23:53:59.813Z,100.00
2023-04-13T23:56:28.368Z,100.00
2023-04-13T23:58:56.319Z,100.00
